Timeline UpdatesTrip UpdatesNews PostsPvt PostsTravel TipsAdmin PostsConv PostsFollowed PostsChat RequestsBlog PostsPNR Posts

Disclaimer
Search
 
 
Wed Oct 1, 2014 03:24:02 ISTHomeTrainsΣChainsAtlasPNRForumGalleryNewsFAQTripsMembersLoginFeedback
No Recent News for this Train
Other Trains in the News **new
Latest...
⇐ Return Journey: Train# 59207

59208/Okha - Bhavnagar Passenger

Time-Table HAS CHANGED.
Sep 06 (10:24PM)
Change Departure Station:
Change Arrival Station:
Post a Train Travel TipPost a Train Travel Tip **new
Post a Comment/Question/Picture/VideoPost a Comment/Question/Picture/Video
Pantry/Catering
✕ NO Pantry Car
✕ NO Catering
RSA - Rake Sharing
59267/59268 Bhavnagar-Palitana Passenger
Rake/Coach Composition
Eng.. GEN..GEN..GEN..S2..S1..GEN..GEN..GEN..SLR
Loco
RTM WDM 3A.
News    PNR    Forum    Time-Table    Availability    Fare Chart    Map    Arr/Dep History    Trips    Gallery    ΣChains    X/O    Timeline    
Travel Time: 6h 49m    28 halts    Distance: 281 km    Avg Speed: 41 km/hr
Type: Passenger
Zone: WR/Western
Departs @ 14:45 (Avg 1m late)
Platform# 1
SMTWTFS
Okha/OKHA 
Arrives @ 21:34 (Avg 24m late)
Platform# ???
SMTWTFS
Sindhawadar/SDD 

28 halts. 31 intermediate Stations between Okha and Sindhawadar

Show ALL intermediate Stations  Show Old Time-Table

#CodeStation NameX/OArrivesAvgDepartsAvgHaltPFDay#KmSpeedElevZoneAddress
1OKHAOkha (3)»  -14:45+1110.0715mWROkha, Gujarat
2MTHPMithapur  14:54 14:53-14:55-1 2m--19.5253mWRJamnagar, Gujarat
3BMRNBhimranaX  15:02+415:03+141m--112.4376mWRBhimrana, Gujarat
4VVAVarvala  15:22 15:21-15:23-1 2m--123.66014mWRJamnagar, Gujarat
5DWKDwarka (2)X  15:28+915:30+152m2128.61714mWRDwarka, Gujarat
6GRJAGorinja  15:45 15:44+2315:46+241 2m--132.5635mWRKhambhalia-Dwarka (SH 6), Gujarat
7OKDOkha MadhiX  16:04 16:03+1916:05+211 2m--150.5305mWRNH 8E, Gujarat
8KRGAKuranga  16:23 16:22-16:24-1 2m--158.87712mWRJamnagar, Gujarat
9BHTABhatiya  16:34 16:33+1016:35+121 2m--170.45034mWRNational Highway 8E, Gujarat
10BPKABhopalka  16:48 16:47+1416:49+141 2m--180.47746mWRJamnagar, Gujarat
11BHTLBhatel  17:01 17:00+2017:02+201 2m--194.66535mWRJamnagar, Gujarat
12VQDViramdad  17:13 17:12-17:14-1 2m--1105.34949mWRKhambhalia-Dwarka (SH 6), Gujarat
13KMBLKhambhalia  17:23+1617:25+172m11112.76749mWRKhambhalia, Gujarat
14SYQSinhanX  17:33 17:32-17:34-1 2m--1120.56250mWRSH 6, Gujarat
15MDPRModpur  17:44 17:43+2317:45+231 2m--1129.85947mWRKhambhalia-Lalpur, Gujarat
16KNLSKanalus JunctionX  17:57 17:56+2417:58+261 2m--1140.64436mWRJamnagar, Gujarat
17PPLIPipli  18:06 18:05+2718:07+271 2m--1145.75730mWRJamnagar, Gujarat
18LKBLLakhabawal  18:18 18:17+2618:19+271 2m--1155.25521mWRJamnagar, Gujarat
19JAMJamnagar (2)  18:32+1518:37+145m11167.04314mWRJamnagar, Gujarat
20HAPAHapa (3)  18:49+2318:54+275m31175.75916mWRJamnagar, Gujarat
21ALBAlia Bada  19:05 19:04+3119:06+311 2m--1185.66427mWRJamnagar, Gujarat
22WTJJam Wanthali  19:18 19:17+3119:19+311 2m--1197.33852mWRRanuja Village Rd, Gujarat
23JALDJaliya DevaniX  19:31+2919:33+292m--1204.93650mWRRanuja Village Rd, Gujarat
24HMHadmatiya Junction  19:47 19:46+2319:48+251 2m--1212.84870mWRHadmatiya Junction Railway Station, Gujarat
25CXChanolX  19:57+2519:59+282m--1219.93489mWRState Highway 25, Gujarat
26PDHPadadhari  20:12 20:11+2420:13+241 2m--1226.86571mWRPaddhari, Gujarat
27KHDIKhanderi  20:27 20:26+2420:28+241 2m--1240.830111mWRRajkot, Gujarat
28RJTRajkot Junction (5)X  20:50+1221:00+1410m11251.636128mWRRajkot, Gujarat
29KHCKhorana  21:19 21:18+2321:20+231 2m--1262.379131mWRState Highway 113, Gujarat
30SDDSindhawadar•X  21:35 21:34+2421:36+291 2m--1280.840105mWRSindhavadar, Gujarat
31WKRCWankaner City  21:52-21:53-1m--1291.41380mWRWankaner, Gujarat
32WKRWankaner Junction (4)X  22:02+2922:04 22:12+422 10m--1293.35387mWRWankaner, Gujarat
33DLDaladi  22:27 22:26+3922:28+401 2m--1305.842115mWRDaladi, Gujarat
34THANThan Junction (3)X  22:48+3022:50+332m11319.952138mWRThangadh, Gujarat
35VDVagdiya  23:03 23:02+3623:04+391 2m--1330.355149mWRState Highway 113, Gujarat
36RARamparda  23:12 23:11+4123:13+531 2m--1336.761141mWRSurendranagar, Gujarat
37MOLMuli RoadX  23:22+5423:24+592m11345.940108mWRSurendranagar, Gujarat
38DXRDigsar  23:37 23:36+5823:38+1:041 2m--1353.98100mWRState Highway 17, Gujarat
39SUNRSurendranagar Junction (4)X  01:15+701:55+1340m32367.64372mWRSurendra Nagar, Gujarat
40SRGTSurendranagar Gate (1)  02:01 01:58-02:02 02:00-1 2m12369.84271mWRSurendranagar, Gujarat
41JVNJorawarnagar Junction (1)  02:06 02:04-02:07 02:06-1 2m12372.54369mWRSurendra Nagar, Gujarat
42WCWadhwan City  02:13 02:11+2302:14 02:13+241 2m--2376.18167mWRSurendranagar, Gujarat
43LMLimbdi (1)  02:30 02:28+2702:31 02:30+281 2m12396.46751mWRLimbdi, Gujarat
44CDAChuda  02:41 02:39+2902:42 02:41+291 2m--2406.57563mWRState Highway 38, Gujarat
45RURRanpur  02:56 02:54+3002:57 02:56+301 2m--2422.87261mWRRanpur, Gujarat
46KDIKundli  03:07 03:05+3103:08 03:07+321 2m--2433.55786mWRState Highway 38, Gujarat
47BTDBotad Junction (5)  03:20 03:19+2903:22 03:21+302m--2445.07496mWRBotad, Gujarat
48LTDLathidad  03:32 03:30+3703:33 03:32+381 2m--2456.07568mWRTajpar Rd, Gujarat
49NGANingala Junction  03:41 03:38+3803:42 03:40+381 2m--2463.57557mWRState Highway 117, Gujarat
50ALMRAlampur  03:49 03:46+3803:50 03:48+381 2m--2471.05059mWRState Highway 31, Gujarat
51UJUjalvav  03:58 03:56+3803:59 03:58+381 2m--2477.75164mWRState Highway 31, Gujarat
52DLJDhola Junction  04:11 04:10+3604:12 04:11+361m--2487.99437mWRDhola, Gujarat
53SOASanosra  04:20 04:18+3704:21 04:20+371 2m--2498.96436mWRState Highway 25, Gujarat
54BJUDBajud  04:26 04:24-04:27 04:26-1 2m--2503.26137mWRState Highway 31, Gujarat
55SGDSongadh (1)X  04:33 04:32+3604:34+361 2m12509.33740mWRBhavnagar, Gujarat
56SOJNSihor Gujarat  04:49 04:46+3004:50 04:48+301 2m--2516.85342mWRShihor, Gujarat
57KDMRKodiyar Mandir  04:57 04:54+2904:58 04:56+291 2m12522.02192mWRSH 21, Gujarat
58VTJVartejX  05:12 05:11+1705:13+191 2m--2527.33124mWRBhavnagar, Gujarat
59BVPBhavnagar Para  05:28 05:27+1805:29+181 2m--2534.5813mWRBhavnagar, Gujarat
60BVCBhavnagar Terminus (2)  05:50+0-12537.2-11mWRBhavnagar, Gujarat
Scroll to Top
Scroll to Bottom